sensor_id;sensor_type;location;lat;lon;timestamp;P1;durP1;ratioP1;P2;durP2;ratioP2
83282;SDS011;73190;50.780;5.658;2023-12-29T00:00:49;6.75;;;1.47;;
83282;SDS011;73190;50.780;5.658;2023-12-29T00:03:16;13.58;;;1.60;;
83282;SDS011;73190;50.780;5.658;2023-12-29T00:05:44;10.30;;;1.67;;
83282;SDS011;73190;50.780;5.658;2023-12-29T00:08:11;11.00;;;1.62;;
83282;SDS011;73190;50.780;5.658;2023-12-29T00:10:39;7.72;;;1.50;;
83282;SDS011;73190;50.780;5.658;2023-12-29T00:13:07;8.55;;;1.40;;
83282;SDS011;73190;50.780;5.658;2023-12-29T00:15:34;10.08;;;1.62;;
83282;SDS011;73190;50.780;5.658;2023-12-29T00:18:02;10.05;;;2.02;;
83282;SDS011;73190;50.780;5.658;2023-12-29T00:20:30;5.10;;;1.37;;
83282;SDS011;73190;50.780;5.658;2023-12-29T00:22:57;9.58;;;1.75;;
83282;SDS011;73190;50.780;5.658;2023-12-29T00:25:25;10.85;;;1.85;;
83282;SDS011;73190;50.780;5.658;2023-12-29T00:27:52;11.73;;;1.67;;
83282;SDS011;73190;50.780;5.658;2023-12-29T00:30:20;6.70;;;1.35;;
83282;SDS011;73190;50.780;5.658;2023-12-29T00:32:47;12.88;;;1.92;;
83282;SDS011;73190;50.780;5.658;2023-12-29T00:35:15;10.80;;;2.37;;
83282;SDS011;73190;50.780;5.658;2023-12-29T00:37:43;8.88;;;1.60;;
83282;SDS011;73190;50.780;5.658;2023-12-29T00:40:10;10.65;;;1.87;;
83282;SDS011;73190;50.780;5.658;2023-12-29T00:42:38;10.18;;;2.00;;
83282;SDS011;73190;50.780;5.658;2023-12-29T00:45:06;15.23;;;1.98;;
83282;SDS011;73190;50.780;5.658;2023-12-29T00:47:34;7.85;;;2.05;;
83282;SDS011;73190;50.780;5.658;2023-12-29T00:50:01;7.65;;;2.00;;
83282;SDS011;73190;50.780;5.658;2023-12-29T00:52:29;9.68;;;2.37;;
83282;SDS011;73190;50.780;5.658;2023-12-29T00:54:56;10.80;;;1.75;;
83282;SDS011;73190;50.780;5.658;2023-12-29T00:57:24;9.93;;;1.90;;
83282;SDS011;73190;50.780;5.658;2023-12-29T00:59:52;8.68;;;1.75;;
83282;SDS011;73190;50.780;5.658;2023-12-29T01:02:20;11.33;;;1.65;;
83282;SDS011;73190;50.780;5.658;2023-12-29T01:04:48;16.12;;;2.12;;
83282;SDS011;73190;50.780;5.658;2023-12-29T01:07:16;10.23;;;2.17;;
83282;SDS011;73190;50.780;5.658;2023-12-29T01:09:44;7.87;;;1.82;;
83282;SDS011;73190;50.780;5.658;2023-12-29T01:12:11;8.25;;;1.72;;
83282;SDS011;73190;50.780;5.658;2023-12-29T01:14:40;9.23;;;1.70;;
83282;SDS011;73190;50.780;5.658;2023-12-29T01:17:08;9.90;;;1.75;;
83282;SDS011;73190;50.780;5.658;2023-12-29T01:19:35;13.15;;;1.92;;
83282;SDS011;73190;50.780;5.658;2023-12-29T01:22:03;10.05;;;1.60;;
83282;SDS011;73190;50.780;5.658;2023-12-29T01:24:31;6.28;;;1.40;;
83282;SDS011;73190;50.780;5.658;2023-12-29T01:26:58;9.80;;;1.98;;
83282;SDS011;73190;50.780;5.658;2023-12-29T01:29:26;9.73;;;1.75;;
83282;SDS011;73190;50.780;5.658;2023-12-29T01:31:53;14.35;;;2.55;;
83282;SDS011;73190;50.780;5.658;2023-12-29T01:34:21;10.58;;;1.87;;
83282;SDS011;73190;50.780;5.658;2023-12-29T01:36:48;8.43;;;1.77;;
83282;SDS011;73190;50.780;5.658;2023-12-29T01:39:16;11.08;;;2.00;;
83282;SDS011;73190;50.780;5.658;2023-12-29T01:41:43;10.00;;;2.45;;
83282;SDS011;73190;50.780;5.658;2023-12-29T01:44:18;10.48;;;1.92;;
83282;SDS011;73190;50.780;5.658;2023-12-29T01:46:47;9.73;;;1.77;;
83282;SDS011;73190;50.780;5.658;2023-12-29T01:49:18;12.18;;;1.80;;
83282;SDS011;73190;50.780;5.658;2023-12-29T01:51:48;12.65;;;2.20;;
83282;SDS011;73190;50.780;5.658;2023-12-29T01:54:18;12.65;;;2.02;;
83282;SDS011;73190;50.780;5.658;2023-12-29T01:56:48;10.35;;;1.57;;
83282;SDS011;73190;50.780;5.658;2023-12-29T01:59:17;8.38;;;1.50;;
83282;SDS011;73190;50.780;5.658;2023-12-29T02:01:45;13.45;;;1.60;;
83282;SDS011;73190;50.780;5.658;2023-12-29T02:04:13;9.65;;;1.60;;
83282;SDS011;73190;50.780;5.658;2023-12-29T02:06:43;9.47;;;1.90;;
83282;SDS011;73190;50.780;5.658;2023-12-29T02:09:11;10.13;;;1.55;;
83282;SDS011;73190;50.780;5.658;2023-12-29T02:11:38;9.75;;;1.70;;
83282;SDS011;73190;50.780;5.658;2023-12-29T02:14:06;8.50;;;1.80;;
83282;SDS011;73190;50.780;5.658;2023-12-29T02:16:44;12.88;;;1.85;;
83282;SDS011;73190;50.780;5.658;2023-12-29T02:19:20;11.38;;;1.60;;
83282;SDS011;73190;50.780;5.658;2023-12-29T02:21:44;9.73;;;1.35;;
83282;SDS011;73190;50.780;5.658;2023-12-29T02:24:12;8.13;;;1.47;;
83282;SDS011;73190;50.780;5.658;2023-12-29T02:26:39;7.95;;;1.22;;
83282;SDS011;73190;50.780;5.658;2023-12-29T02:29:10;7.58;;;1.62;;
83282;SDS011;73190;50.780;5.658;2023-12-29T02:31:40;10.30;;;2.62;;
83282;SDS011;73190;50.780;5.658;2023-12-29T02:34:11;8.88;;;1.62;;
83282;SDS011;73190;50.780;5.658;2023-12-29T02:36:40;8.58;;;1.27;;
83282;SDS011;73190;50.780;5.658;2023-12-29T02:39:09;8.78;;;1.55;;
83282;SDS011;73190;50.780;5.658;2023-12-29T02:41:38;14.23;;;1.75;;
83282;SDS011;73190;50.780;5.658;2023-12-29T02:44:05;10.58;;;1.50;;
83282;SDS011;73190;50.780;5.658;2023-12-29T02:46:33;7.58;;;1.82;;
83282;SDS011;73190;50.780;5.658;2023-12-29T02:49:01;11.65;;;1.52;;
83282;SDS011;73190;50.780;5.658;2023-12-29T02:51:28;8.00;;;1.37;;
83282;SDS011;73190;50.780;5.658;2023-12-29T02:53:56;8.75;;;1.72;;
83282;SDS011;73190;50.780;5.658;2023-12-29T02:56:24;8.50;;;1.57;;
83282;SDS011;73190;50.780;5.658;2023-12-29T02:58:51;7.72;;;1.50;;
83282;SDS011;73190;50.780;5.658;2023-12-29T03:01:19;10.08;;;1.40;;
83282;SDS011;73190;50.780;5.658;2023-12-29T03:03:46;6.87;;;1.50;;
83282;SDS011;73190;50.780;5.658;2023-12-29T03:06:14;12.07;;;1.30;;
83282;SDS011;73190;50.780;5.658;2023-12-29T03:08:41;10.90;;;1.60;;
83282;SDS011;73190;50.780;5.658;2023-12-29T03:11:09;10.45;;;1.50;;
83282;SDS011;73190;50.780;5.658;2023-12-29T03:13:37;13.03;;;2.27;;
83282;SDS011;73190;50.780;5.658;2023-12-29T03:16:04;10.25;;;1.40;;
83282;SDS011;73190;50.780;5.658;2023-12-29T03:18:34;8.35;;;1.60;;
83282;SDS011;73190;50.780;5.658;2023-12-29T03:21:03;8.65;;;1.32;;
83282;SDS011;73190;50.780;5.658;2023-12-29T03:23:31;12.75;;;1.60;;
83282;SDS011;73190;50.780;5.658;2023-12-29T03:25:59;6.60;;;1.30;;
83282;SDS011;73190;50.780;5.658;2023-12-29T03:28:27;8.48;;;1.65;;
83282;SDS011;73190;50.780;5.658;2023-12-29T03:30:55;13.22;;;1.75;;
83282;SDS011;73190;50.780;5.658;2023-12-29T03:33:22;10.80;;;1.72;;
83282;SDS011;73190;50.780;5.658;2023-12-29T03:35:49;9.38;;;1.22;;
83282;SDS011;73190;50.780;5.658;2023-12-29T03:38:17;7.92;;;1.20;;
83282;SDS011;73190;50.780;5.658;2023-12-29T03:40:45;6.10;;;1.42;;
83282;SDS011;73190;50.780;5.658;2023-12-29T03:43:12;13.38;;;1.98;;
83282;SDS011;73190;50.780;5.658;2023-12-29T03:45:40;8.75;;;1.20;;
83282;SDS011;73190;50.780;5.658;2023-12-29T03:48:07;10.30;;;1.45;;
83282;SDS011;73190;50.780;5.658;2023-12-29T03:50:35;8.70;;;1.20;;
83282;SDS011;73190;50.780;5.658;2023-12-29T03:53:02;10.65;;;1.85;;
83282;SDS011;73190;50.780;5.658;2023-12-29T03:55:30;6.75;;;1.15;;
83282;SDS011;73190;50.780;5.658;2023-12-29T03:57:58;10.88;;;1.22;;
83282;SDS011;73190;50.780;5.658;2023-12-29T04:00:27;12.93;;;2.83;;
83282;SDS011;73190;50.780;5.658;2023-12-29T04:02:55;8.18;;;1.70;;
83282;SDS011;73190;50.780;5.658;2023-12-29T04:05:22;12.10;;;1.60;;
83282;SDS011;73190;50.780;5.658;2023-12-29T04:07:50;7.60;;;1.17;;
83282;SDS011;73190;50.780;5.658;2023-12-29T04:10:17;9.55;;;1.55;;
83282;SDS011;73190;50.780;5.658;2023-12-29T04:12:45;11.33;;;1.65;;
83282;SDS011;73190;50.780;5.658;2023-12-29T04:15:14;8.60;;;1.32;;
83282;SDS011;73190;50.780;5.658;2023-12-29T04:17:41;8.53;;;1.50;;
83282;SDS011;73190;50.780;5.658;2023-12-29T04:20:09;11.15;;;1.52;;
83282;SDS011;73190;50.780;5.658;2023-12-29T04:22:37;9.20;;;1.45;;
83282;SDS011;73190;50.780;5.658;2023-12-29T04:25:04;9.98;;;1.60;;
83282;SDS011;73190;50.780;5.658;2023-12-29T04:27:33;7.90;;;1.00;;
83282;SDS011;73190;50.780;5.658;2023-12-29T04:30:00;12.00;;;1.77;;
83282;SDS011;73190;50.780;5.658;2023-12-29T04:32:28;8.73;;;1.35;;
83282;SDS011;73190;50.780;5.658;2023-12-29T04:34:56;6.03;;;2.05;;
83282;SDS011;73190;50.780;5.658;2023-12-29T04:37:24;10.32;;;1.27;;
83282;SDS011;73190;50.780;5.658;2023-12-29T04:39:52;8.05;;;1.35;;
83282;SDS011;73190;50.780;5.658;2023-12-29T04:42:19;8.23;;;1.87;;
83282;SDS011;73190;50.780;5.658;2023-12-29T04:44:49;12.93;;;1.40;;
83282;SDS011;73190;50.780;5.658;2023-12-29T04:47:16;8.88;;;1.80;;
83282;SDS011;73190;50.780;5.658;2023-12-29T04:49:44;10.38;;;1.75;;
83282;SDS011;73190;50.780;5.658;2023-12-29T04:52:11;12.93;;;1.60;;
83282;SDS011;73190;50.780;5.658;2023-12-29T04:54:40;12.20;;;1.55;;
83282;SDS011;73190;50.780;5.658;2023-12-29T04:57:07;8.18;;;1.85;;
83282;SDS011;73190;50.780;5.658;2023-12-29T04:59:35;11.80;;;1.80;;
83282;SDS011;73190;50.780;5.658;2023-12-29T05:02:02;7.53;;;1.00;;
83282;SDS011;73190;50.780;5.658;2023-12-29T05:04:30;7.33;;;1.00;;
83282;SDS011;73190;50.780;5.658;2023-12-29T05:06:58;8.13;;;1.05;;
83282;SDS011;73190;50.780;5.658;2023-12-29T05:09:26;7.80;;;2.10;;
83282;SDS011;73190;50.780;5.658;2023-12-29T05:11:53;5.95;;;0.95;;
83282;SDS011;73190;50.780;5.658;2023-12-29T05:14:21;10.32;;;1.50;;
83282;SDS011;73190;50.780;5.658;2023-12-29T05:16:48;7.47;;;1.00;;
83282;SDS011;73190;50.780;5.658;2023-12-29T05:19:16;10.82;;;1.65;;
83282;SDS011;73190;50.780;5.658;2023-12-29T05:21:43;7.25;;;1.00;;
83282;SDS011;73190;50.780;5.658;2023-12-29T05:24:11;9.45;;;1.02;;
83282;SDS011;73190;50.780;5.658;2023-12-29T05:26:39;9.50;;;1.55;;
83282;SDS011;73190;50.780;5.658;2023-12-29T05:29:06;7.78;;;1.72;;
83282;SDS011;73190;50.780;5.658;2023-12-29T05:31:34;11.95;;;1.25;;
83282;SDS011;73190;50.780;5.658;2023-12-29T05:34:02;8.20;;;1.82;;
83282;SDS011;73190;50.780;5.658;2023-12-29T05:36:29;9.45;;;1.40;;
83282;SDS011;73190;50.780;5.658;2023-12-29T05:38:57;8.83;;;1.20;;
83282;SDS011;73190;50.780;5.658;2023-12-29T05:41:24;7.65;;;1.12;;
83282;SDS011;73190;50.780;5.658;2023-12-29T05:43:52;10.98;;;1.45;;
83282;SDS011;73190;50.780;5.658;2023-12-29T05:46:19;9.15;;;1.30;;
83282;SDS011;73190;50.780;5.658;2023-12-29T05:48:47;10.05;;;1.52;;
83282;SDS011;73190;50.780;5.658;2023-12-29T05:51:14;9.75;;;1.22;;
83282;SDS011;73190;50.780;5.658;2023-12-29T05:53:42;8.53;;;1.27;;
83282;SDS011;73190;50.780;5.658;2023-12-29T05:56:13;6.50;;;1.07;;
83282;SDS011;73190;50.780;5.658;2023-12-29T05:58:41;8.13;;;1.05;;
83282;SDS011;73190;50.780;5.658;2023-12-29T06:01:09;7.80;;;1.10;;
83282;SDS011;73190;50.780;5.658;2023-12-29T06:03:37;8.95;;;1.07;;
83282;SDS011;73190;50.780;5.658;2023-12-29T06:06:05;10.45;;;1.20;;
83282;SDS011;73190;50.780;5.658;2023-12-29T06:08:32;10.65;;;1.60;;
83282;SDS011;73190;50.780;5.658;2023-12-29T06:11:00;12.65;;;1.30;;
83282;SDS011;73190;50.780;5.658;2023-12-29T06:13:28;9.98;;;1.50;;
83282;SDS011;73190;50.780;5.658;2023-12-29T06:15:55;7.65;;;0.90;;
83282;SDS011;73190;50.780;5.658;2023-12-29T06:18:23;6.45;;;1.10;;
83282;SDS011;73190;50.780;5.658;2023-12-29T06:20:51;10.65;;;1.52;;
83282;SDS011;73190;50.780;5.658;2023-12-29T06:23:18;8.53;;;1.15;;
83282;SDS011;73190;50.780;5.658;2023-12-29T06:25:46;9.05;;;1.37;;
83282;SDS011;73190;50.780;5.658;2023-12-29T06:28:13;9.28;;;1.35;;
83282;SDS011;73190;50.780;5.658;2023-12-29T06:30:41;11.75;;;1.40;;
83282;SDS011;73190;50.780;5.658;2023-12-29T06:33:09;10.20;;;1.52;;
83282;SDS011;73190;50.780;5.658;2023-12-29T06:35:36;7.33;;;1.45;;
83282;SDS011;73190;50.780;5.658;2023-12-29T06:38:04;10.88;;;1.47;;
83282;SDS011;73190;50.780;5.658;2023-12-29T06:40:32;9.60;;;1.15;;
83282;SDS011;73190;50.780;5.658;2023-12-29T06:42:59;7.62;;;1.10;;
83282;SDS011;73190;50.780;5.658;2023-12-29T06:45:27;8.90;;;1.40;;
83282;SDS011;73190;50.780;5.658;2023-12-29T06:47:54;7.20;;;1.15;;
83282;SDS011;73190;50.780;5.658;2023-12-29T06:50:23;7.30;;;1.60;;
83282;SDS011;73190;50.780;5.658;2023-12-29T06:52:50;8.40;;;1.27;;
83282;SDS011;73190;50.780;5.658;2023-12-29T06:55:18;11.12;;;1.60;;
83282;SDS011;73190;50.780;5.658;2023-12-29T06:57:45;8.60;;;1.57;;
83282;SDS011;73190;50.780;5.658;2023-12-29T07:00:13;8.00;;;1.10;;
83282;SDS011;73190;50.780;5.658;2023-12-29T07:02:41;12.58;;;1.67;;
83282;SDS011;73190;50.780;5.658;2023-12-29T07:05:08;10.05;;;1.60;;
83282;SDS011;73190;50.780;5.658;2023-12-29T07:07:36;12.90;;;1.62;;
83282;SDS011;73190;50.780;5.658;2023-12-29T07:10:04;12.40;;;2.30;;
83282;SDS011;73190;50.780;5.658;2023-12-29T07:12:32;11.50;;;1.75;;
83282;SDS011;73190;50.780;5.658;2023-12-29T07:14:59;16.70;;;1.80;;
83282;SDS011;73190;50.780;5.658;2023-12-29T07:17:27;10.05;;;1.72;;
83282;SDS011;73190;50.780;5.658;2023-12-29T07:19:54;13.95;;;1.50;;
83282;SDS011;73190;50.780;5.658;2023-12-29T07:22:22;13.13;;;2.35;;
83282;SDS011;73190;50.780;5.658;2023-12-29T07:24:49;17.20;;;2.37;;
83282;SDS011;73190;50.780;5.658;2023-12-29T07:27:17;17.55;;;2.42;;
83282;SDS011;73190;50.780;5.658;2023-12-29T07:29:45;17.32;;;2.27;;
83282;SDS011;73190;50.780;5.658;2023-12-29T07:32:12;14.55;;;2.42;;
83282;SDS011;73190;50.780;5.658;2023-12-29T07:34:40;16.97;;;2.10;;
83282;SDS011;73190;50.780;5.658;2023-12-29T07:37:07;12.93;;;1.80;;
83282;SDS011;73190;50.780;5.658;2023-12-29T07:39:35;17.60;;;1.92;;
83282;SDS011;73190;50.780;5.658;2023-12-29T07:42:03;11.85;;;2.25;;
83282;SDS011;73190;50.780;5.658;2023-12-29T07:44:31;15.63;;;2.05;;
83282;SDS011;73190;50.780;5.658;2023-12-29T07:46:59;22.45;;;2.08;;
83282;SDS011;73190;50.780;5.658;2023-12-29T07:49:26;15.90;;;2.30;;
83282;SDS011;73190;50.780;5.658;2023-12-29T07:51:54;14.47;;;1.75;;
83282;SDS011;73190;50.780;5.658;2023-12-29T07:54:23;9.73;;;2.13;;
83282;SDS011;73190;50.780;5.658;2023-12-29T07:56:51;10.20;;;1.80;;
83282;SDS011;73190;50.780;5.658;2023-12-29T07:59:18;10.13;;;1.85;;
83282;SDS011;73190;50.780;5.658;2023-12-29T08:01:46;12.37;;;2.02;;
83282;SDS011;73190;50.780;5.658;2023-12-29T08:04:13;13.15;;;1.42;;
83282;SDS011;73190;50.780;5.658;2023-12-29T08:06:41;16.55;;;1.60;;
83282;SDS011;73190;50.780;5.658;2023-12-29T08:09:09;12.43;;;1.40;;
83282;SDS011;73190;50.780;5.658;2023-12-29T08:11:36;15.50;;;1.80;;
83282;SDS011;73190;50.780;5.658;2023-12-29T08:14:04;4.70;;;1.10;;
83282;SDS011;73190;50.780;5.658;2023-12-29T08:16:37;7.03;;;1.30;;
83282;SDS011;73190;50.780;5.658;2023-12-29T08:19:06;9.25;;;1.62;;
83282;SDS011;73190;50.780;5.658;2023-12-29T08:21:38;10.75;;;1.82;;
83282;SDS011;73190;50.780;5.658;2023-12-29T08:24:06;8.00;;;1.40;;
83282;SDS011;73190;50.780;5.658;2023-12-29T08:26:41;8.00;;;1.17;;
83282;SDS011;73190;50.780;5.658;2023-12-29T08:29:05;9.20;;;1.32;;
83282;SDS011;73190;50.780;5.658;2023-12-29T08:31:33;6.97;;;1.12;;
83282;SDS011;73190;50.780;5.658;2023-12-29T08:34:00;9.80;;;1.12;;
83282;SDS011;73190;50.780;5.658;2023-12-29T08:36:28;7.03;;;1.27;;
83282;SDS011;73190;50.780;5.658;2023-12-29T08:38:55;10.68;;;1.60;;
83282;SDS011;73190;50.780;5.658;2023-12-29T08:41:23;7.28;;;1.40;;
83282;SDS011;73190;50.780;5.658;2023-12-29T08:43:51;9.35;;;1.70;;
83282;SDS011;73190;50.780;5.658;2023-12-29T08:46:19;6.55;;;1.75;;
83282;SDS011;73190;50.780;5.658;2023-12-29T08:48:46;8.35;;;1.72;;
83282;SDS011;73190;50.780;5.658;2023-12-29T08:51:14;7.40;;;1.30;;
83282;SDS011;73190;50.780;5.658;2023-12-29T08:53:41;12.55;;;1.30;;
83282;SDS011;73190;50.780;5.658;2023-12-29T08:56:11;8.88;;;1.05;;
83282;SDS011;73190;50.780;5.658;2023-12-29T08:58:40;7.20;;;1.45;;
83282;SDS011;73190;50.780;5.658;2023-12-29T09:01:07;6.47;;;1.20;;
83282;SDS011;73190;50.780;5.658;2023-12-29T09:03:35;10.75;;;1.50;;
83282;SDS011;73190;50.780;5.658;2023-12-29T09:06:03;7.28;;;1.10;;
83282;SDS011;73190;50.780;5.658;2023-12-29T09:08:31;7.55;;;0.93;;
83282;SDS011;73190;50.780;5.658;2023-12-29T09:10:58;8.48;;;1.27;;
83282;SDS011;73190;50.780;5.658;2023-12-29T09:13:26;7.28;;;1.17;;
83282;SDS011;73190;50.780;5.658;2023-12-29T09:15:58;6.90;;;1.00;;
83282;SDS011;73190;50.780;5.658;2023-12-29T09:18:26;5.87;;;1.02;;
83282;SDS011;73190;50.780;5.658;2023-12-29T09:20:54;16.27;;;1.65;;
83282;SDS011;73190;50.780;5.658;2023-12-29T09:23:21;12.58;;;1.40;;
83282;SDS011;73190;50.780;5.658;2023-12-29T09:25:49;7.83;;;1.27;;
83282;SDS011;73190;50.780;5.658;2023-12-29T09:28:16;11.30;;;1.25;;
83282;SDS011;73190;50.780;5.658;2023-12-29T09:30:44;5.08;;;0.72;;
83282;SDS011;73190;50.780;5.658;2023-12-29T09:33:11;10.53;;;1.60;;
83282;SDS011;73190;50.780;5.658;2023-12-29T09:35:39;9.00;;;1.62;;
83282;SDS011;73190;50.780;5.658;2023-12-29T09:38:06;12.40;;;1.20;;
83282;SDS011;73190;50.780;5.658;2023-12-29T09:40:35;12.30;;;1.10;;
83282;SDS011;73190;50.780;5.658;2023-12-29T09:43:03;7.17;;;1.02;;
83282;SDS011;73190;50.780;5.658;2023-12-29T09:45:33;6.87;;;1.57;;
83282;SDS011;73190;50.780;5.658;2023-12-29T09:48:05;7.45;;;1.20;;
83282;SDS011;73190;50.780;5.658;2023-12-29T09:50:37;4.53;;;0.80;;
83282;SDS011;73190;50.780;5.658;2023-12-29T09:53:07;4.87;;;0.83;;
83282;SDS011;73190;50.780;5.658;2023-12-29T09:55:38;7.00;;;1.00;;
83282;SDS011;73190;50.780;5.658;2023-12-29T09:58:07;6.95;;;1.50;;
83282;SDS011;73190;50.780;5.658;2023-12-29T10:00:36;6.60;;;0.88;;
83282;SDS011;73190;50.780;5.658;2023-12-29T10:03:05;5.50;;;0.88;;
83282;SDS011;73190;50.780;5.658;2023-12-29T10:05:35;7.42;;;1.25;;
83282;SDS011;73190;50.780;5.658;2023-12-29T10:08:03;4.78;;;0.82;;
83282;SDS011;73190;50.780;5.658;2023-12-29T10:10:34;9.30;;;1.07;;
83282;SDS011;73190;50.780;5.658;2023-12-29T10:13:04;6.37;;;0.82;;
83282;SDS011;73190;50.780;5.658;2023-12-29T10:15:37;6.55;;;1.27;;
83282;SDS011;73190;50.780;5.658;2023-12-29T10:18:32;5.70;;;1.07;;
83282;SDS011;73190;50.780;5.658;2023-12-29T10:21:01;5.67;;;0.80;;
83282;SDS011;73190;50.780;5.658;2023-12-29T10:23:45;6.70;;;0.90;;
83282;SDS011;73190;50.780;5.658;2023-12-29T10:26:12;5.25;;;1.10;;
83282;SDS011;73190;50.780;5.658;2023-12-29T10:28:41;6.42;;;0.85;;
83282;SDS011;73190;50.780;5.658;2023-12-29T10:31:09;7.47;;;1.10;;
83282;SDS011;73190;50.780;5.658;2023-12-29T10:33:38;7.90;;;1.00;;
83282;SDS011;73190;50.780;5.658;2023-12-29T10:36:07;5.62;;;1.20;;
83282;SDS011;73190;50.780;5.658;2023-12-29T10:38:38;8.08;;;1.35;;
83282;SDS011;73190;50.780;5.658;2023-12-29T10:41:17;13.20;;;1.20;;
83282;SDS011;73190;50.780;5.658;2023-12-29T10:43:46;7.47;;;1.30;;
83282;SDS011;73190;50.780;5.658;2023-12-29T10:46:16;8.20;;;1.00;;
83282;SDS011;73190;50.780;5.658;2023-12-29T10:48:46;7.05;;;1.37;;
83282;SDS011;73190;50.780;5.658;2023-12-29T10:51:14;9.20;;;1.27;;
83282;SDS011;73190;50.780;5.658;2023-12-29T10:53:41;6.97;;;1.20;;
83282;SDS011;73190;50.780;5.658;2023-12-29T10:56:18;7.83;;;1.30;;
83282;SDS011;73190;50.780;5.658;2023-12-29T10:58:46;6.42;;;1.00;;
83282;SDS011;73190;50.780;5.658;2023-12-29T11:01:15;5.35;;;1.05;;
83282;SDS011;73190;50.780;5.658;2023-12-29T11:03:44;7.92;;;1.35;;
83282;SDS011;73190;50.780;5.658;2023-12-29T11:06:15;9.55;;;1.20;;
83282;SDS011;73190;50.780;5.658;2023-12-29T11:08:42;4.47;;;0.90;;
83282;SDS011;73190;50.780;5.658;2023-12-29T11:11:10;7.50;;;1.60;;
83282;SDS011;73190;50.780;5.658;2023-12-29T11:13:38;8.58;;;1.22;;
83282;SDS011;73190;50.780;5.658;2023-12-29T11:16:06;5.60;;;0.93;;
83282;SDS011;73190;50.780;5.658;2023-12-29T11:18:34;7.45;;;0.82;;
83282;SDS011;73190;50.780;5.658;2023-12-29T11:21:02;5.97;;;0.85;;
83282;SDS011;73190;50.780;5.658;2023-12-29T11:23:30;6.12;;;0.80;;
83282;SDS011;73190;50.780;5.658;2023-12-29T11:25:58;4.72;;;0.78;;
83282;SDS011;73190;50.780;5.658;2023-12-29T11:28:26;5.87;;;1.00;;
83282;SDS011;73190;50.780;5.658;2023-12-29T11:30:54;2.40;;;0.62;;
83282;SDS011;73190;50.780;5.658;2023-12-29T11:33:23;5.90;;;1.00;;
83282;SDS011;73190;50.780;5.658;2023-12-29T11:41:33;5.45;;;1.00;;
83282;SDS011;73190;50.780;5.658;2023-12-29T11:44:10;4.90;;;0.60;;
83282;SDS011;73190;50.780;5.658;2023-12-29T11:46:38;4.37;;;0.75;;
83282;SDS011;73190;50.780;5.658;2023-12-29T11:49:08;5.75;;;1.00;;
83282;SDS011;73190;50.780;5.658;2023-12-29T11:51:39;4.35;;;0.60;;
83282;SDS011;73190;50.780;5.658;2023-12-29T11:54:31;6.17;;;0.90;;
83282;SDS011;73190;50.780;5.658;2023-12-29T11:56:51;4.15;;;0.70;;
83282;SDS011;73190;50.780;5.658;2023-12-29T11:59:20;4.55;;;0.90;;
83282;SDS011;73190;50.780;5.658;2023-12-29T12:01:53;2.83;;;0.70;;
83282;SDS011;73190;50.780;5.658;2023-12-29T12:04:42;3.12;;;1.02;;
83282;SDS011;73190;50.780;5.658;2023-12-29T12:07:56;9.68;;;0.95;;
83282;SDS011;73190;50.780;5.658;2023-12-29T12:09:50;5.87;;;0.82;;
83282;SDS011;73190;50.780;5.658;2023-12-29T12:18:05;2.45;;;0.60;;
83282;SDS011;73190;50.780;5.658;2023-12-29T12:20:34;4.42;;;0.50;;
83282;SDS011;73190;50.780;5.658;2023-12-29T12:25:39;3.65;;;0.80;;
83282;SDS011;73190;50.780;5.658;2023-12-29T12:28:08;5.83;;;0.98;;
83282;SDS011;73190;50.780;5.658;2023-12-29T12:30:36;6.17;;;0.90;;
83282;SDS011;73190;50.780;5.658;2023-12-29T12:33:04;5.97;;;0.72;;
83282;SDS011;73190;50.780;5.658;2023-12-29T12:35:32;4.92;;;0.90;;
83282;SDS011;73190;50.780;5.658;2023-12-29T12:38:09;7.15;;;1.02;;
83282;SDS011;73190;50.780;5.658;2023-12-29T12:40:42;4.87;;;0.65;;
83282;SDS011;73190;50.780;5.658;2023-12-29T12:43:12;6.47;;;0.82;;
83282;SDS011;73190;50.780;5.658;2023-12-29T12:45:42;7.10;;;1.25;;
83282;SDS011;73190;50.780;5.658;2023-12-29T12:48:29;4.83;;;1.27;;
83282;SDS011;73190;50.780;5.658;2023-12-29T12:51:00;5.90;;;1.22;;
83282;SDS011;73190;50.780;5.658;2023-12-29T12:53:29;6.65;;;0.80;;
83282;SDS011;73190;50.780;5.658;2023-12-29T12:55:57;5.72;;;0.90;;
83282;SDS011;73190;50.780;5.658;2023-12-29T12:58:25;7.35;;;1.37;;
83282;SDS011;73190;50.780;5.658;2023-12-29T13:00:54;10.35;;;1.40;;
83282;SDS011;73190;50.780;5.658;2023-12-29T13:03:24;8.35;;;1.37;;
83282;SDS011;73190;50.780;5.658;2023-12-29T13:05:52;9.43;;;2.12;;
83282;SDS011;73190;50.780;5.658;2023-12-29T13:08:20;10.70;;;1.40;;
83282;SDS011;73190;50.780;5.658;2023-12-29T13:10:48;9.75;;;1.35;;
83282;SDS011;73190;50.780;5.658;2023-12-29T13:13:15;7.67;;;1.82;;
83282;SDS011;73190;50.780;5.658;2023-12-29T13:15:50;10.53;;;2.13;;
83282;SDS011;73190;50.780;5.658;2023-12-29T13:18:15;6.12;;;1.60;;
83282;SDS011;73190;50.780;5.658;2023-12-29T13:20:44;10.20;;;2.02;;
83282;SDS011;73190;50.780;5.658;2023-12-29T13:23:16;12.05;;;1.75;;
83282;SDS011;73190;50.780;5.658;2023-12-29T13:25:44;5.17;;;1.55;;
83282;SDS011;73190;50.780;5.658;2023-12-29T13:28:15;6.22;;;1.37;;
83282;SDS011;73190;50.780;5.658;2023-12-29T13:30:43;4.65;;;1.40;;
83282;SDS011;73190;50.780;5.658;2023-12-29T13:33:12;8.10;;;1.80;;
83282;SDS011;73190;50.780;5.658;2023-12-29T13:35:47;7.42;;;1.52;;
83282;SDS011;73190;50.780;5.658;2023-12-29T13:38:18;8.53;;;1.60;;
83282;SDS011;73190;50.780;5.658;2023-12-29T13:40:59;8.88;;;1.75;;
83282;SDS011;73190;50.780;5.658;2023-12-29T13:43:28;6.20;;;1.35;;
83282;SDS011;73190;50.780;5.658;2023-12-29T13:45:58;6.62;;;1.27;;
83282;SDS011;73190;50.780;5.658;2023-12-29T13:48:26;7.08;;;1.22;;
83282;SDS011;73190;50.780;5.658;2023-12-29T13:50:55;8.95;;;1.55;;
83282;SDS011;73190;50.780;5.658;2023-12-29T13:53:23;5.50;;;0.98;;
83282;SDS011;73190;50.780;5.658;2023-12-29T13:55:50;3.98;;;0.98;;
83282;SDS011;73190;50.780;5.658;2023-12-29T13:58:18;5.50;;;1.17;;
83282;SDS011;73190;50.780;5.658;2023-12-29T14:00:46;5.85;;;1.10;;
83282;SDS011;73190;50.780;5.658;2023-12-29T14:03:40;5.12;;;1.00;;
83282;SDS011;73190;50.780;5.658;2023-12-29T14:08:31;5.45;;;1.02;;
83282;SDS011;73190;50.780;5.658;2023-12-29T14:11:08;2.92;;;0.80;;
83282;SDS011;73190;50.780;5.658;2023-12-29T14:16:23;2.90;;;0.70;;
83282;SDS011;73190;50.780;5.658;2023-12-29T14:18:52;3.58;;;0.50;;
83282;SDS011;73190;50.780;5.658;2023-12-29T14:21:22;3.90;;;0.60;;
83282;SDS011;73190;50.780;5.658;2023-12-29T14:24:01;3.40;;;0.88;;
83282;SDS011;73190;50.780;5.658;2023-12-29T14:26:41;2.17;;;0.60;;
83282;SDS011;73190;50.780;5.658;2023-12-29T14:29:11;4.75;;;0.72;;
83282;SDS011;73190;50.780;5.658;2023-12-29T14:31:45;5.55;;;0.82;;
83282;SDS011;73190;50.780;5.658;2023-12-29T14:34:09;3.00;;;0.68;;
83282;SDS011;73190;50.780;5.658;2023-12-29T14:36:43;3.85;;;1.27;;
83282;SDS011;73190;50.780;5.658;2023-12-29T14:41:41;3.90;;;0.88;;
83282;SDS011;73190;50.780;5.658;2023-12-29T14:44:09;5.90;;;1.00;;
83282;SDS011;73190;50.780;5.658;2023-12-29T14:46:37;6.20;;;1.02;;
83282;SDS011;73190;50.780;5.658;2023-12-29T14:49:04;3.67;;;0.80;;
83282;SDS011;73190;50.780;5.658;2023-12-29T14:51:33;6.92;;;1.10;;
83282;SDS011;73190;50.780;5.658;2023-12-29T14:54:00;7.72;;;1.27;;
83282;SDS011;73190;50.780;5.658;2023-12-29T14:56:29;2.95;;;1.02;;
83282;SDS011;73190;50.780;5.658;2023-12-29T14:58:56;5.87;;;1.15;;
83282;SDS011;73190;50.780;5.658;2023-12-29T15:01:25;6.47;;;1.07;;
83282;SDS011;73190;50.780;5.658;2023-12-29T15:03:52;5.25;;;1.05;;
83282;SDS011;73190;50.780;5.658;2023-12-29T15:06:20;4.33;;;0.82;;
83282;SDS011;73190;50.780;5.658;2023-12-29T15:08:48;4.45;;;1.25;;
83282;SDS011;73190;50.780;5.658;2023-12-29T15:11:16;5.03;;;1.02;;
83282;SDS011;73190;50.780;5.658;2023-12-29T15:13:44;4.05;;;0.93;;